createdAt,value
2023-02-16T00:02:04.677Z,2.22
2023-02-16T00:07:07.908Z,2.26
2023-02-16T00:12:38.670Z,2.28
2023-02-16T00:17:41.777Z,2.29
2023-02-16T00:22:45.002Z,2.32
2023-02-16T00:27:48.193Z,2.35
2023-02-16T00:32:51.309Z,2.35
2023-02-16T00:37:54.315Z,2.35
2023-02-16T00:42:57.929Z,2.36
2023-02-16T00:48:01.043Z,2.39
2023-02-16T00:53:04.261Z,2.40
2023-02-16T00:58:13.923Z,2.40
2023-02-16T01:03:23.890Z,2.41
2023-02-16T01:08:45.937Z,2.43
2023-02-16T01:13:50.786Z,2.44
2023-02-16T01:18:54.451Z,2.43
2023-02-16T01:23:57.412Z,2.42
2023-02-16T01:29:00.418Z,2.42
2023-02-16T01:34:03.325Z,2.40
2023-02-16T01:39:07.351Z,2.38
2023-02-16T01:44:17.954Z,2.40
2023-02-16T01:49:21.556Z,2.43
2023-02-16T01:54:34.098Z,2.45
2023-02-16T01:59:41.575Z,2.43
2023-02-16T02:05:08.059Z,2.43
2023-02-16T02:10:41.888Z,2.45
2023-02-16T02:15:45.014Z,2.44
2023-02-16T02:21:22.205Z,2.41
2023-02-16T02:26:44.056Z,2.37
2023-02-16T02:31:53.093Z,2.37
2023-02-16T02:37:18.224Z,2.35
2023-02-16T02:42:41.301Z,2.34
2023-02-16T02:47:46.296Z,2.31
2023-02-16T02:52:49.158Z,2.27
2023-02-16T02:58:10.805Z,2.26
2023-02-16T03:03:25.234Z,2.28
2023-02-16T03:08:33.348Z,2.28
2023-02-16T03:13:44.661Z,2.25
2023-02-16T03:19:07.271Z,2.24
2023-02-16T03:24:33.418Z,2.20
2023-02-16T03:29:38.124Z,2.15
2023-02-16T03:34:41.169Z,2.11
2023-02-16T03:40:02.915Z,2.10
2023-02-16T03:45:07.444Z,2.13
2023-02-16T03:50:10.670Z,2.14
2023-02-16T03:55:14.118Z,2.12
2023-02-16T04:00:17.861Z,2.11
2023-02-16T04:05:21.533Z,2.09
2023-02-16T04:10:25.315Z,2.05
2023-02-16T04:15:30.318Z,2.04
2023-02-16T04:20:35.054Z,2.03
2023-02-16T04:25:38.064Z,2.02
2023-02-16T04:30:41.278Z,2.01
2023-02-16T04:35:44.486Z,2.02
2023-02-16T04:40:47.694Z,2.02
2023-02-16T04:45:50.836Z,2.01
2023-02-16T04:50:53.810Z,2.01
2023-02-16T04:55:56.819Z,2.01
2023-02-16T05:01:00.027Z,1.98
2023-02-16T05:06:03.137Z,1.95
2023-02-16T05:11:25.193Z,1.92
2023-02-16T05:16:28.200Z,1.89
2023-02-16T05:21:31.200Z,1.84
2023-02-16T05:26:35.743Z,1.84
2023-02-16T05:31:38.848Z,1.81
2023-02-16T05:36:41.962Z,1.77
2023-02-16T05:41:45.285Z,1.74
2023-02-16T05:46:48.384Z,1.75
2023-02-16T05:51:51.907Z,1.76
2023-02-16T05:56:55.115Z,1.75
2023-02-16T06:01:58.126Z,1.74
2023-02-16T06:07:01.440Z,1.68
2023-02-16T06:12:05.000Z,1.62
2023-02-16T06:17:07.962Z,1.60
2023-02-16T06:22:10.970Z,1.59
2023-02-16T06:27:13.986Z,1.53
2023-02-16T06:32:18.595Z,1.48
2023-02-16T06:37:22.548Z,1.47
2023-02-16T06:42:25.655Z,1.47
2023-02-16T06:47:28.763Z,1.48
2023-02-16T06:52:32.081Z,1.45
2023-02-16T06:57:35.093Z,1.45
2023-02-16T07:02:38.194Z,1.49
2023-02-16T07:07:41.300Z,1.54
2023-02-16T07:12:44.419Z,1.49
2023-02-16T07:17:47.420Z,1.43
2023-02-16T07:22:50.631Z,1.40
2023-02-16T07:27:54.865Z,1.44
2023-02-16T07:32:57.977Z,1.50
2023-02-16T07:38:01.083Z,1.56
2023-02-16T07:43:05.788Z,1.61
2023-02-16T07:48:08.842Z,1.61
2023-02-16T07:53:13.061Z,1.63
2023-02-16T07:58:28.059Z,1.67
2023-02-16T08:03:31.167Z,1.70
2023-02-16T08:08:34.469Z,1.71
2023-02-16T08:13:37.497Z,1.74
2023-02-16T08:18:42.027Z,1.80
2023-02-16T08:23:47.807Z,1.88
2023-02-16T08:28:50.906Z,1.98
2023-02-16T08:33:55.255Z,2.09
2023-02-16T08:38:59.147Z,2.15
2023-02-16T08:44:03.512Z,2.21
2023-02-16T08:49:08.058Z,2.30
2023-02-16T08:54:15.970Z,2.36
2023-02-16T08:59:21.720Z,2.38
2023-02-16T09:04:26.491Z,2.44
2023-02-16T09:09:30.013Z,2.41
2023-02-16T09:14:33.218Z,2.38
2023-02-16T09:19:36.329Z,2.35
2023-02-16T09:24:39.338Z,2.32
2023-02-16T09:29:44.085Z,2.32
2023-02-16T09:34:50.273Z,2.35
2023-02-16T09:39:53.468Z,2.43
2023-02-16T09:45:05.498Z,2.48
2023-02-16T09:50:27.835Z,2.52
2023-02-16T09:55:59.708Z,2.61
2023-02-16T10:01:29.208Z,2.72
2023-02-16T10:07:03.290Z,2.74
2023-02-16T10:12:11.446Z,2.85
2023-02-16T10:17:28.572Z,2.91
2023-02-16T10:22:41.806Z,2.97
2023-02-16T10:27:51.583Z,3.08
2023-02-16T10:32:56.853Z,3.20
2023-02-16T10:38:12.642Z,3.29
2023-02-16T10:43:24.558Z,3.36
2023-02-16T10:48:27.776Z,3.38
2023-02-16T10:53:41.509Z,3.45
2023-02-16T10:58:44.534Z,3.48
2023-02-16T11:03:50.628Z,3.49
2023-02-16T11:09:00.175Z,3.46
2023-02-16T11:14:09.041Z,3.39
2023-02-16T11:19:26.169Z,3.32
2023-02-16T11:24:33.873Z,3.31
2023-02-16T11:29:37.186Z,3.36
2023-02-16T11:34:45.327Z,3.39
2023-02-16T11:39:58.047Z,3.33
2023-02-16T11:45:03.782Z,3.32
2023-02-16T11:50:29.068Z,3.41
2023-02-16T11:55:36.165Z,3.55
2023-02-16T12:00:42.272Z,3.70
2023-02-16T12:06:20.864Z,3.91
2023-02-16T12:11:43.629Z,4.04
2023-02-16T12:17:12.443Z,4.08
2023-02-16T12:22:41.432Z,4.17
2023-02-16T12:28:02.792Z,4.23
2023-02-16T12:33:19.726Z,4.24
2023-02-16T12:38:28.825Z,4.22
2023-02-16T12:43:38.250Z,4.23
2023-02-16T12:49:01.315Z,4.31
2023-02-16T12:54:16.403Z,4.37
2023-02-16T12:59:24.944Z,4.43
2023-02-16T13:04:42.952Z,4.49
2023-02-16T13:10:20.589Z,4.64
2023-02-16T13:15:32.637Z,4.88
2023-02-16T13:20:42.922Z,5.05
2023-02-16T13:26:01.252Z,5.11
2023-02-16T13:31:12.698Z,4.99
2023-02-16T13:36:34.344Z,4.94
2023-02-16T13:42:02.127Z,4.96
2023-02-16T13:47:05.775Z,5.03
2023-02-16T13:52:31.372Z,5.16
2023-02-16T13:57:50.652Z,5.10
2023-02-16T14:03:26.125Z,5.00
2023-02-16T14:08:31.084Z,4.89
2023-02-16T14:13:37.068Z,4.76
2023-02-16T14:18:43.439Z,4.56
2023-02-16T14:23:56.169Z,4.42
2023-02-16T14:29:09.642Z,4.28
2023-02-16T14:34:21.766Z,4.13
2023-02-16T14:39:26.478Z,3.92
2023-02-16T14:44:53.261Z,3.75
2023-02-16T14:49:59.362Z,3.66
2023-02-16T14:55:33.703Z,3.57
2023-02-16T15:00:48.863Z,3.47
2023-02-16T15:05:57.993Z,3.42
2023-02-16T15:11:15.319Z,3.35
2023-02-16T15:16:18.419Z,3.26
2023-02-16T15:21:28.653Z,3.16
2023-02-16T15:26:36.466Z,3.02
2023-02-16T15:31:40.063Z,2.91
2023-02-16T15:36:45.375Z,2.76
2023-02-16T15:41:51.646Z,2.62
2023-02-16T15:47:07.228Z,2.51
2023-02-16T15:52:21.778Z,2.42
2023-02-16T15:57:38.341Z,2.23
2023-02-16T16:02:50.560Z,2.00
2023-02-16T16:07:55.400Z,1.87
2023-02-16T16:13:03.226Z,1.76
2023-02-16T16:18:06.916Z,1.66
2023-02-16T16:23:15.989Z,1.50
2023-02-16T16:28:28.107Z,1.36
2023-02-16T16:33:52.304Z,1.26
2023-02-16T16:39:13.857Z,1.18
2023-02-16T16:44:39.695Z,1.11
2023-02-16T16:49:56.814Z,1.03
2023-02-16T16:55:00.274Z,0.95
2023-02-16T17:00:04.235Z,0.89
2023-02-16T17:05:08.228Z,0.86
2023-02-16T17:10:11.217Z,0.90
2023-02-16T17:15:33.877Z,0.91
2023-02-16T17:20:36.887Z,0.86
2023-02-16T17:25:40.649Z,0.83
2023-02-16T17:30:44.304Z,0.85
2023-02-16T17:35:48.070Z,0.84
2023-02-16T17:40:53.624Z,0.81
2023-02-16T17:45:59.694Z,0.79
2023-02-16T17:51:02.642Z,0.80
2023-02-16T17:56:06.811Z,0.80
2023-02-16T18:01:14.886Z,0.82
2023-02-16T18:06:20.326Z,0.84
2023-02-16T18:11:23.434Z,0.93
2023-02-16T18:16:28.217Z,1.03
2023-02-16T18:21:31.188Z,1.09
2023-02-16T18:26:34.194Z,1.10
2023-02-16T18:31:37.214Z,1.14
2023-02-16T18:36:40.420Z,1.21
2023-02-16T18:41:43.530Z,1.16
2023-02-16T18:46:46.637Z,1.13
2023-02-16T18:51:49.774Z,1.14
2023-02-16T18:56:53.068Z,1.15
2023-02-16T19:01:59.960Z,1.07
2023-02-16T19:07:02.979Z,1.05
2023-02-16T19:12:06.075Z,1.15
2023-02-16T19:17:09.177Z,1.34
2023-02-16T19:22:12.394Z,1.51
2023-02-16T19:27:15.506Z,1.66
2023-02-16T19:32:20.350Z,1.78
2023-02-16T19:37:23.353Z,1.92
2023-02-16T19:42:26.472Z,2.07
2023-02-16T19:47:29.470Z,2.18
2023-02-16T19:52:32.546Z,2.26
2023-02-16T19:57:35.477Z,2.32
2023-02-16T20:02:38.490Z,2.43
2023-02-16T20:07:41.487Z,2.56
2023-02-16T20:12:44.585Z,2.68
2023-02-16T20:17:48.119Z,2.77
2023-02-16T20:22:51.243Z,2.81
2023-02-16T20:27:57.297Z,2.84
2023-02-16T20:33:00.435Z,2.85
2023-02-16T20:38:03.834Z,2.90
2023-02-16T20:43:07.783Z,2.97
2023-02-16T20:48:10.972Z,3.04
2023-02-16T20:53:13.877Z,3.12
2023-02-16T20:58:17.494Z,3.18
2023-02-16T21:03:20.723Z,3.24
2023-02-16T21:08:23.828Z,3.30
2023-02-16T21:13:26.928Z,3.35
2023-02-16T21:18:30.132Z,3.40
2023-02-16T21:23:33.138Z,3.48
2023-02-16T21:28:36.044Z,3.56
2023-02-16T21:33:39.562Z,3.62
2023-02-16T21:38:43.180Z,3.65
2023-02-16T21:43:46.113Z,3.68
2023-02-16T21:48:50.388Z,3.73
2023-02-16T21:53:54.130Z,3.79
2023-02-16T21:58:57.773Z,3.84
2023-02-16T22:04:01.578Z,3.89
2023-02-16T22:09:10.530Z,3.93
2023-02-16T22:14:14.039Z,3.94
2023-02-16T22:19:18.786Z,3.92
2023-02-16T22:24:21.703Z,3.90
2023-02-16T22:29:24.809Z,3.90
2023-02-16T22:34:27.829Z,3.90
2023-02-16T22:39:31.579Z,3.91
2023-02-16T22:44:34.661Z,3.91
2023-02-16T22:49:37.667Z,3.91
2023-02-16T22:54:40.777Z,3.93
2023-02-16T22:59:43.884Z,3.94
2023-02-16T23:04:46.982Z,3.96
2023-02-16T23:09:50.103Z,4.00
2023-02-16T23:14:53.495Z,4.04
2023-02-16T23:19:56.437Z,4.07
2023-02-16T23:25:31.582Z,4.10
2023-02-16T23:30:34.592Z,4.07
2023-02-16T23:35:39.540Z,4.05
2023-02-16T23:40:43.368Z,4.05
2023-02-16T23:45:46.395Z,4.03
2023-02-16T23:50:50.837Z,4.01
2023-02-16T23:56:24.129Z,4.00
